createdAt,value
2017-07-23T00:00:11.746Z,991.75
2017-07-23T00:01:11.779Z,991.73
2017-07-23T00:02:11.805Z,991.76
2017-07-23T00:03:11.836Z,991.74
2017-07-23T00:04:11.865Z,991.75
2017-07-23T00:05:11.899Z,991.72
2017-07-23T00:06:11.928Z,991.73
2017-07-23T00:07:11.956Z,991.76
2017-07-23T00:08:11.985Z,991.78
2017-07-23T00:09:12.018Z,991.83
2017-07-23T00:10:12.048Z,991.87
2017-07-23T00:11:12.077Z,991.93
2017-07-23T00:12:12.103Z,991.96
2017-07-23T00:13:12.138Z,991.93
2017-07-23T00:14:12.165Z,991.96
2017-07-23T00:15:12.195Z,991.94
2017-07-23T00:16:12.223Z,991.9
2017-07-23T00:17:12.255Z,991.86
2017-07-23T00:18:12.284Z,991.85
2017-07-23T00:19:12.313Z,991.89
2017-07-23T00:20:12.343Z,991.94
2017-07-23T00:21:12.375Z,991.95
2017-07-23T00:22:12.404Z,992.02
2017-07-23T00:23:12.433Z,992.08
2017-07-23T00:24:12.462Z,992.05
2017-07-23T00:25:12.491Z,992.09
2017-07-23T00:26:12.524Z,992.08
2017-07-23T00:27:12.553Z,992.1
2017-07-23T00:28:12.581Z,992.01
2017-07-23T00:29:12.616Z,992.01
2017-07-23T00:30:12.643Z,992.03
2017-07-23T00:31:12.667Z,992
2017-07-23T00:32:12.703Z,992.04
2017-07-23T00:33:12.729Z,992.06
2017-07-23T00:34:12.757Z,992.04
2017-07-23T00:35:12.791Z,992.03
2017-07-23T00:36:12.820Z,992
2017-07-23T00:37:12.849Z,992.02
2017-07-23T00:38:12.879Z,992.06
2017-07-23T00:39:12.909Z,992.05
2017-07-23T00:40:12.935Z,992.12
2017-07-23T00:41:12.969Z,992.11
2017-07-23T00:42:12.997Z,992.16
2017-07-23T00:43:13.030Z,992.24
2017-07-23T00:44:13.051Z,992.28
2017-07-23T00:45:13.085Z,992.27
2017-07-23T00:46:13.124Z,992.22
2017-07-23T00:47:13.141Z,992.23
2017-07-23T00:48:13.174Z,992.2
2017-07-23T00:49:13.207Z,992.11
2017-07-23T00:50:13.236Z,992.15
2017-07-23T00:51:13.264Z,992.15
2017-07-23T00:52:13.294Z,992.13
2017-07-23T00:53:13.331Z,992.11
2017-07-23T00:54:13.354Z,992.13
2017-07-23T00:55:13.383Z,992.14
2017-07-23T00:56:13.412Z,992.16
2017-07-23T00:57:13.441Z,992.18
2017-07-23T00:58:13.475Z,992.21
2017-07-23T00:59:13.503Z,992.19
2017-07-23T01:00:13.532Z,992.21
2017-07-23T01:01:13.563Z,992.25
2017-07-23T01:02:13.591Z,992.21
2017-07-23T01:03:13.622Z,992.19
2017-07-23T01:04:13.651Z,992.17
2017-07-23T01:05:13.680Z,992.17
2017-07-23T01:06:13.708Z,992.14
2017-07-23T01:07:13.737Z,992.18
2017-07-23T01:08:13.770Z,992.18
2017-07-23T01:09:13.799Z,992.18
2017-07-23T01:10:13.828Z,992.14
2017-07-23T01:11:13.857Z,992.15
2017-07-23T01:12:13.885Z,992.15
2017-07-23T01:13:13.920Z,992.16
2017-07-23T01:14:13.947Z,992.17
2017-07-23T01:15:13.976Z,992.24
2017-07-23T01:16:14.005Z,992.18
2017-07-23T01:17:14.037Z,992.17
2017-07-23T01:18:14.068Z,992.14
2017-07-23T01:19:14.096Z,992.14
2017-07-23T01:20:14.124Z,992.19
2017-07-23T01:21:14.152Z,992.18
2017-07-23T01:22:14.182Z,992.17
2017-07-23T01:23:14.214Z,992.13
2017-07-23T01:24:14.242Z,992.16
2017-07-23T01:25:14.269Z,992.19
2017-07-23T01:26:14.305Z,992.26
2017-07-23T01:27:14.330Z,992.21
2017-07-23T01:28:14.363Z,992.24
2017-07-23T01:29:14.392Z,992.18
2017-07-23T01:30:14.421Z,992.19
2017-07-23T01:31:14.449Z,992.18
2017-07-23T01:32:14.479Z,992.18
2017-07-23T01:33:14.515Z,992.26
2017-07-23T01:34:14.540Z,992.3
2017-07-23T01:35:14.569Z,992.24
2017-07-23T01:36:14.598Z,992.26
2017-07-23T01:37:14.626Z,992.19
2017-07-23T01:38:14.654Z,992.23
2017-07-23T01:39:14.688Z,992.2
2017-07-23T01:40:14.719Z,992.24
2017-07-23T01:41:14.745Z,992.21
2017-07-23T01:42:14.770Z,992.27
2017-07-23T01:43:14.806Z,992.26
2017-07-23T01:44:14.836Z,992.22
2017-07-23T01:45:14.861Z,992.23
2017-07-23T01:46:14.893Z,992.24
2017-07-23T01:47:14.923Z,992.19
2017-07-23T01:48:14.953Z,992.21
2017-07-23T01:49:14.977Z,992.22
2017-07-23T01:50:15.013Z,992.24
2017-07-23T01:51:15.041Z,992.24
2017-07-23T01:52:15.074Z,992.24
2017-07-23T01:53:15.100Z,992.25
2017-07-23T01:54:15.131Z,992.22
2017-07-23T01:55:15.162Z,992.27
2017-07-23T01:56:15.190Z,992.26
2017-07-23T01:57:15.217Z,992.22
2017-07-23T01:58:15.239Z,992.24
2017-07-23T01:59:15.278Z,992.16
2017-07-23T02:00:15.312Z,992.19
2017-07-23T02:01:15.339Z,992.16
2017-07-23T02:02:15.367Z,992.22
2017-07-23T02:03:15.392Z,992.25
2017-07-23T02:04:15.425Z,992.24
2017-07-23T02:05:15.456Z,992.22
2017-07-23T02:06:15.486Z,992.18
2017-07-23T02:07:15.511Z,992.2
2017-07-23T02:08:15.540Z,992.17
2017-07-23T02:09:15.571Z,992.17
2017-07-23T02:10:15.602Z,992.2
2017-07-23T02:11:15.882Z,992.2
2017-07-23T02:12:15.654Z,992.23
2017-07-23T02:13:15.695Z,992.25
2017-07-23T02:14:15.717Z,992.23
2017-07-23T02:15:15.749Z,992.23
2017-07-23T02:16:16.030Z,992.2
2017-07-23T02:17:15.808Z,992.2
2017-07-23T02:18:15.838Z,992.18
2017-07-23T02:19:15.870Z,992.21
2017-07-23T02:20:15.900Z,992.21
2017-07-23T02:21:16.225Z,992.21
2017-07-23T02:22:15.951Z,992.26
2017-07-23T02:23:15.985Z,992.32
2017-07-23T02:24:16.012Z,992.35
2017-07-23T02:25:16.045Z,992.32
2017-07-23T02:26:16.075Z,992.34
2017-07-23T02:27:16.104Z,992.35
2017-07-23T02:28:16.133Z,992.38
2017-07-23T02:29:16.159Z,992.31
2017-07-23T02:30:16.190Z,992.41
2017-07-23T02:31:16.222Z,992.39
2017-07-23T02:32:16.252Z,992.42
2017-07-23T02:33:16.284Z,992.43
2017-07-23T02:34:16.309Z,992.43
2017-07-23T02:35:16.334Z,992.45
2017-07-23T02:36:16.367Z,992.47
2017-07-23T02:37:16.400Z,992.52
2017-07-23T02:38:16.428Z,992.49
2017-07-23T02:39:16.461Z,992.49
2017-07-23T02:40:16.486Z,992.5
2017-07-23T02:41:16.515Z,992.5
2017-07-23T02:42:16.544Z,992.55
2017-07-23T02:43:16.578Z,992.53
2017-07-23T02:44:16.606Z,992.5
2017-07-23T02:45:16.639Z,992.58
2017-07-23T02:46:16.664Z,992.59
2017-07-23T02:47:16.693Z,992.58
2017-07-23T02:48:16.721Z,992.6
2017-07-23T02:49:16.750Z,992.61
2017-07-23T02:50:16.781Z,992.63
2017-07-23T02:51:16.812Z,992.61
2017-07-23T02:52:16.840Z,992.66
2017-07-23T02:53:16.870Z,992.68
2017-07-23T02:54:16.899Z,992.67
2017-07-23T02:55:16.925Z,992.62
2017-07-23T02:56:16.957Z,992.67
2017-07-23T02:57:16.981Z,992.62
2017-07-23T02:58:17.014Z,992.65
2017-07-23T02:59:17.045Z,992.58
2017-07-23T03:00:17.073Z,992.64
2017-07-23T03:01:17.103Z,992.68
2017-07-23T03:02:17.136Z,992.66
2017-07-23T03:03:17.161Z,992.62
2017-07-23T03:04:17.193Z,992.63
2017-07-23T03:05:17.218Z,992.67
2017-07-23T03:06:17.251Z,992.64
2017-07-23T03:07:17.277Z,992.66
2017-07-23T03:08:17.308Z,992.65
2017-07-23T03:09:17.343Z,992.67
2017-07-23T03:10:17.371Z,992.7
2017-07-23T03:11:17.400Z,992.66
2017-07-23T03:12:17.429Z,992.65
2017-07-23T03:13:17.458Z,992.67
2017-07-23T03:14:17.488Z,992.71
2017-07-23T03:15:17.516Z,992.73
2017-07-23T03:16:17.547Z,992.72
2017-07-23T03:17:17.577Z,992.78
2017-07-23T03:18:17.606Z,992.74
2017-07-23T03:19:17.636Z,992.75
2017-07-23T03:20:17.664Z,992.75
2017-07-23T03:21:17.692Z,992.78
2017-07-23T03:22:17.721Z,992.72
2017-07-23T03:23:17.753Z,992.74
2017-07-23T03:24:17.782Z,992.77
2017-07-23T03:25:17.811Z,992.83
2017-07-23T03:26:17.841Z,992.83
2017-07-23T03:27:17.869Z,992.87
2017-07-23T03:28:17.901Z,992.82
2017-07-23T03:29:17.930Z,992.81
2017-07-23T03:30:17.960Z,992.82
2017-07-23T03:31:17.989Z,992.76
2017-07-23T03:32:18.017Z,992.77
2017-07-23T03:33:18.045Z,992.75
2017-07-23T03:34:18.075Z,992.78
2017-07-23T03:35:18.107Z,992.72
2017-07-23T03:36:18.137Z,992.8
2017-07-23T03:37:18.165Z,992.77
2017-07-23T03:38:18.194Z,992.82
2017-07-23T03:39:18.223Z,992.82
2017-07-23T03:40:18.252Z,992.82
2017-07-23T03:41:18.281Z,992.88
2017-07-23T03:42:18.313Z,992.93
2017-07-23T03:43:18.341Z,992.91
2017-07-23T03:44:18.367Z,992.97
2017-07-23T03:45:18.395Z,992.96
2017-07-23T03:46:18.429Z,993
2017-07-23T03:47:18.457Z,993
2017-07-23T03:48:18.486Z,993.03
2017-07-23T03:49:18.515Z,993.01
2017-07-23T03:50:18.548Z,993.07
2017-07-23T03:51:18.577Z,993.08
2017-07-23T03:52:18.606Z,993.07
2017-07-23T03:53:18.630Z,993.07
2017-07-23T03:54:18.664Z,993.09
2017-07-23T03:55:18.693Z,993.08
2017-07-23T03:56:18.721Z,993.09
2017-07-23T03:57:18.753Z,993.06
2017-07-23T03:58:18.779Z,993.09
2017-07-23T03:59:18.812Z,993.09
2017-07-23T04:00:18.841Z,993.13
2017-07-23T04:01:18.869Z,993.17
2017-07-23T04:02:18.898Z,993.18
2017-07-23T04:03:18.927Z,993.19
2017-07-23T04:04:18.957Z,993.15
2017-07-23T04:05:18.988Z,993.12
2017-07-23T04:06:19.016Z,993.08
2017-07-23T04:07:19.045Z,993.08
2017-07-23T04:08:19.073Z,993.04
2017-07-23T04:09:19.104Z,993.1
2017-07-23T04:10:19.132Z,993.08
2017-07-23T04:11:19.160Z,993.14
2017-07-23T04:12:19.195Z,993.15
2017-07-23T04:13:19.220Z,993.15
2017-07-23T04:14:19.250Z,993.18
2017-07-23T04:15:19.280Z,993.17
2017-07-23T04:16:19.309Z,993.19
2017-07-23T04:17:19.338Z,993.15
2017-07-23T04:18:19.366Z,993.15
2017-07-23T04:19:19.395Z,993.2
2017-07-23T04:20:19.424Z,993.22
2017-07-23T04:21:19.456Z,993.19
2017-07-23T04:22:19.734Z,993.22
2017-07-23T04:23:19.511Z,993.26
2017-07-23T04:24:19.544Z,993.26
2017-07-23T04:25:19.573Z,993.28
2017-07-23T04:26:19.601Z,993.31
2017-07-23T04:27:19.932Z,993.3
2017-07-23T04:28:19.659Z,993.3
2017-07-23T04:29:19.692Z,993.33
2017-07-23T04:30:19.721Z,993.33
2017-07-23T04:31:19.750Z,993.34
2017-07-23T04:32:20.028Z,993.34
2017-07-23T04:33:19.808Z,993.27
2017-07-23T04:34:19.836Z,993.3
2017-07-23T04:35:19.866Z,993.27
2017-07-23T04:36:19.895Z,993.36
2017-07-23T04:37:20.234Z,993.38
2017-07-23T04:38:19.959Z,993.43
2017-07-23T04:39:19.983Z,993.39
2017-07-23T04:40:20.014Z,993.45
2017-07-23T04:41:20.041Z,993.42
2017-07-23T04:42:20.072Z,993.42
2017-07-23T04:43:20.103Z,993.45
2017-07-23T04:44:20.128Z,993.43
2017-07-23T04:45:20.161Z,993.42
2017-07-23T04:46:20.191Z,993.45
2017-07-23T04:47:20.218Z,993.48
2017-07-23T04:48:20.248Z,993.45
2017-07-23T04:49:20.273Z,993.53
2017-07-23T04:50:20.309Z,993.53
2017-07-23T04:51:20.335Z,993.48
2017-07-23T04:52:20.363Z,993.5
2017-07-23T04:53:20.392Z,993.57
2017-07-23T04:54:20.425Z,993.53
2017-07-23T04:55:20.453Z,993.5
2017-07-23T04:56:20.482Z,993.54
2017-07-23T04:57:20.515Z,993.57
2017-07-23T04:58:20.536Z,993.58
2017-07-23T04:59:20.574Z,993.6
2017-07-23T05:00:20.597Z,993.62
2017-07-23T05:01:20.637Z,993.69
2017-07-23T05:02:20.660Z,993.62
2017-07-23T05:03:20.688Z,993.65
2017-07-23T05:04:20.717Z,993.65
2017-07-23T05:05:20.746Z,993.66
2017-07-23T05:06:20.773Z,993.67
2017-07-23T05:07:20.804Z,993.71
2017-07-23T05:08:20.833Z,993.68
2017-07-23T05:09:20.862Z,993.7
2017-07-23T05:10:20.894Z,993.69
2017-07-23T05:11:20.920Z,993.7
2017-07-23T05:12:20.952Z,993.65
2017-07-23T05:13:20.981Z,993.68
2017-07-23T05:14:21.009Z,993.69
2017-07-23T05:15:21.038Z,993.73
2017-07-23T05:16:21.066Z,993.72
2017-07-23T05:17:21.095Z,993.72
2017-07-23T05:18:21.129Z,993.74
2017-07-23T05:19:21.158Z,993.74
2017-07-23T05:20:21.187Z,993.72
2017-07-23T05:21:21.215Z,993.68
2017-07-23T05:22:21.244Z,993.73
2017-07-23T05:23:21.274Z,993.71
2017-07-23T05:24:21.305Z,993.7
2017-07-23T05:25:21.331Z,993.68
2017-07-23T05:26:21.364Z,993.66
2017-07-23T05:27:21.391Z,993.66
2017-07-23T05:28:21.421Z,993.67
2017-07-23T05:29:21.449Z,993.67
2017-07-23T05:30:21.478Z,993.72
2017-07-23T05:31:21.508Z,993.75
2017-07-23T05:32:21.536Z,993.72
2017-07-23T05:33:21.564Z,993.74
2017-07-23T05:34:21.592Z,993.74
2017-07-23T05:35:21.623Z,993.73
2017-07-23T05:36:21.654Z,993.7
2017-07-23T05:37:21.684Z,993.73
2017-07-23T05:38:21.713Z,993.73
2017-07-23T05:39:21.742Z,993.76
2017-07-23T05:40:21.766Z,993.72
2017-07-23T05:41:21.800Z,993.71
2017-07-23T05:42:21.828Z,993.71
2017-07-23T05:43:21.857Z,993.73
2017-07-23T05:44:21.886Z,993.74
2017-07-23T05:45:21.919Z,993.77
2017-07-23T05:46:21.948Z,993.82
2017-07-23T05:47:21.977Z,993.81
2017-07-23T05:48:22.004Z,993.81
2017-07-23T05:49:22.030Z,993.88
2017-07-23T05:50:22.063Z,993.85
2017-07-23T05:51:22.091Z,993.82
2017-07-23T05:52:22.120Z,993.79
2017-07-23T05:53:22.153Z,993.85
2017-07-23T05:54:22.182Z,993.82
2017-07-23T05:55:22.212Z,993.8
2017-07-23T05:56:22.240Z,993.78
2017-07-23T05:57:22.270Z,993.89
2017-07-23T05:58:22.297Z,993.86
2017-07-23T05:59:22.325Z,993.9
2017-07-23T06:00:22.354Z,993.93
2017-07-23T06:01:22.388Z,993.93
2017-07-23T06:02:22.417Z,993.92
2017-07-23T06:03:22.446Z,993.95
2017-07-23T06:04:22.475Z,993.98
2017-07-23T06:05:22.506Z,993.95
2017-07-23T06:06:22.533Z,993.97
2017-07-23T06:07:22.560Z,993.97
2017-07-23T06:08:22.586Z,993.96
2017-07-23T06:09:22.619Z,993.94
2017-07-23T06:10:22.651Z,993.93
2017-07-23T06:11:22.679Z,993.93
2017-07-23T06:12:22.709Z,993.96
2017-07-23T06:13:22.737Z,993.92
2017-07-23T06:14:22.767Z,993.93
2017-07-23T06:15:22.795Z,993.91
2017-07-23T06:16:22.829Z,993.97
2017-07-23T06:17:22.851Z,994
2017-07-23T06:18:22.889Z,993.94
2017-07-23T06:19:22.915Z,993.97
2017-07-23T06:20:22.944Z,993.97
2017-07-23T06:21:22.972Z,993.97
2017-07-23T06:22:23.002Z,993.95
2017-07-23T06:23:23.030Z,993.94
2017-07-23T06:24:23.063Z,993.95
2017-07-23T06:25:23.092Z,993.93
2017-07-23T06:26:23.121Z,993.91
2017-07-23T06:27:23.150Z,993.92
2017-07-23T06:28:23.180Z,993.96
2017-07-23T06:29:23.204Z,993.96
2017-07-23T06:30:23.236Z,994
2017-07-23T06:31:23.265Z,994.03
2017-07-23T06:32:23.294Z,994.06
2017-07-23T06:33:23.578Z,994.12
2017-07-23T06:34:23.356Z,994.07
2017-07-23T06:35:23.385Z,994.04
2017-07-23T06:36:23.414Z,994.05
2017-07-23T06:37:23.443Z,994.07
2017-07-23T06:38:23.722Z,994.12
2017-07-23T06:39:23.502Z,994.1
2017-07-23T06:40:23.534Z,994.22
2017-07-23T06:41:23.561Z,994.11
2017-07-23T06:42:23.590Z,994.14
2017-07-23T06:43:23.921Z,994.24
2017-07-23T06:44:23.647Z,994.16
2017-07-23T06:45:23.680Z,994.28
2017-07-23T06:46:23.710Z,994.21
2017-07-23T06:47:23.738Z,994.35
2017-07-23T06:48:24.066Z,994.36
2017-07-23T06:49:23.795Z,994.36
2017-07-23T06:50:23.825Z,994.38
2017-07-23T06:51:23.853Z,994.35
2017-07-23T06:52:23.892Z,994.36
2017-07-23T06:53:24.163Z,994.37
2017-07-23T06:54:23.940Z,994.4
2017-07-23T06:55:23.973Z,994.41
2017-07-23T06:56:24.000Z,994.44
2017-07-23T06:57:24.030Z,994.44
2017-07-23T06:58:24.060Z,994.45
2017-07-23T06:59:24.089Z,994.47
2017-07-23T07:00:24.120Z,994.51
2017-07-23T07:01:24.145Z,994.48
2017-07-23T07:02:24.179Z,994.52
2017-07-23T07:03:24.202Z,994.53
2017-07-23T07:04:24.237Z,994.56
2017-07-23T07:05:24.265Z,994.58
2017-07-23T07:06:24.298Z,994.59
2017-07-23T07:07:24.326Z,994.59
2017-07-23T07:08:24.355Z,994.6
2017-07-23T07:09:24.384Z,994.65
2017-07-23T07:10:24.414Z,994.69
2017-07-23T07:11:24.443Z,994.65
2017-07-23T07:12:24.471Z,994.69
2017-07-23T07:13:24.507Z,994.7
2017-07-23T07:14:24.534Z,994.75
2017-07-23T07:15:24.562Z,994.72
2017-07-23T07:16:24.592Z,994.71
2017-07-23T07:17:24.619Z,994.74
2017-07-23T07:18:24.646Z,994.78
2017-07-23T07:19:24.676Z,994.83
2017-07-23T07:20:24.710Z,994.82
2017-07-23T07:21:24.739Z,994.77
2017-07-23T07:22:24.767Z,994.81
2017-07-23T07:23:24.797Z,994.84
2017-07-23T07:24:24.826Z,994.87
2017-07-23T07:25:24.854Z,994.79
2017-07-23T07:26:24.884Z,994.79
2017-07-23T07:27:24.920Z,994.82
2017-07-23T07:28:24.945Z,994.83
2017-07-23T07:29:24.970Z,994.71
2017-07-23T07:30:25.001Z,994.74
2017-07-23T07:31:25.032Z,994.77
2017-07-23T07:32:25.063Z,994.77
2017-07-23T07:33:25.092Z,994.79
2017-07-23T07:34:25.124Z,994.8
2017-07-23T07:35:25.150Z,994.78
2017-07-23T07:36:25.178Z,994.8
2017-07-23T07:37:25.208Z,994.81
2017-07-23T07:38:25.236Z,994.8
2017-07-23T07:39:25.268Z,994.79
2017-07-23T07:40:25.297Z,994.79
2017-07-23T07:41:25.327Z,994.72
2017-07-23T07:42:25.355Z,994.73
2017-07-23T07:43:25.384Z,994.72
2017-07-23T07:44:25.414Z,994.73
2017-07-23T07:45:25.443Z,994.73
2017-07-23T07:46:25.475Z,994.72
2017-07-23T07:47:25.504Z,994.73
2017-07-23T07:48:25.533Z,994.7
2017-07-23T07:49:25.561Z,994.7
2017-07-23T07:50:25.592Z,994.71
2017-07-23T07:51:25.623Z,994.67
2017-07-23T07:52:25.652Z,994.7
2017-07-23T07:53:25.681Z,994.66
2017-07-23T07:54:25.705Z,994.68
2017-07-23T07:55:25.738Z,994.66
2017-07-23T07:56:25.767Z,994.63
2017-07-23T07:57:25.799Z,994.64
2017-07-23T07:58:25.828Z,994.64
2017-07-23T07:59:25.857Z,994.58
2017-07-23T08:00:25.886Z,994.61
2017-07-23T08:01:25.922Z,994.57
2017-07-23T08:02:25.944Z,994.62
2017-07-23T08:03:25.970Z,994.63
2017-07-23T08:04:26.257Z,994.66
2017-07-23T08:05:26.030Z,994.63
2017-07-23T08:06:26.064Z,994.66
2017-07-23T08:07:26.091Z,994.61
2017-07-23T08:08:26.119Z,994.64
2017-07-23T08:09:26.154Z,994.66
2017-07-23T08:10:26.183Z,994.66
2017-07-23T08:11:26.212Z,994.68
2017-07-23T08:12:26.241Z,994.67
2017-07-23T08:13:26.272Z,994.7
2017-07-23T08:14:26.301Z,994.72
2017-07-23T08:15:26.331Z,994.65
2017-07-23T08:16:26.360Z,994.72
2017-07-23T08:17:26.384Z,994.71
2017-07-23T08:18:26.418Z,994.71
2017-07-23T08:19:26.450Z,994.61
2017-07-23T08:20:26.478Z,994.67
2017-07-23T08:21:26.508Z,994.69
2017-07-23T08:22:26.532Z,994.73
2017-07-23T08:23:26.566Z,994.79
2017-07-23T08:24:26.598Z,994.81
2017-07-23T08:25:26.625Z,994.75
2017-07-23T08:26:26.655Z,994.81
2017-07-23T08:27:26.683Z,994.83
2017-07-23T08:28:26.711Z,994.83
2017-07-23T08:29:26.739Z,994.85
2017-07-23T08:30:26.781Z,994.84
2017-07-23T08:31:26.804Z,994.86
2017-07-23T08:32:26.833Z,994.87
2017-07-23T08:33:26.862Z,994.82
2017-07-23T08:34:26.890Z,994.85
2017-07-23T08:35:26.923Z,994.81
2017-07-23T08:36:26.951Z,994.81
2017-07-23T08:37:26.981Z,994.82
2017-07-23T08:38:27.009Z,994.85
2017-07-23T08:39:27.038Z,994.83
2017-07-23T08:40:27.064Z,994.89
2017-07-23T08:41:27.097Z,994.82
2017-07-23T08:42:27.127Z,994.81
2017-07-23T08:43:27.155Z,994.8
2017-07-23T08:44:27.187Z,994.72
2017-07-23T08:45:27.237Z,994.76
2017-07-23T08:46:27.249Z,994.79
2017-07-23T08:47:27.282Z,994.82
2017-07-23T08:48:27.308Z,994.8
2017-07-23T08:49:27.330Z,994.77
2017-07-23T08:50:27.364Z,994.73
2017-07-23T08:51:27.393Z,994.76
2017-07-23T08:52:27.426Z,994.81
2017-07-23T08:53:27.455Z,994.81
2017-07-23T08:54:27.484Z,994.73
2017-07-23T08:55:27.516Z,994.7
2017-07-23T08:56:27.541Z,994.69
2017-07-23T08:57:27.574Z,994.75
2017-07-23T08:58:27.602Z,994.75
2017-07-23T08:59:27.631Z,994.71
2017-07-23T09:00:27.659Z,994.72
2017-07-23T09:01:27.687Z,994.71
2017-07-23T09:02:27.716Z,994.76
2017-07-23T09:03:27.751Z,994.77
2017-07-23T09:04:27.780Z,994.8
2017-07-23T09:05:27.812Z,994.77
2017-07-23T09:06:27.833Z,994.76
2017-07-23T09:07:27.865Z,994.77
2017-07-23T09:08:27.895Z,994.72
2017-07-23T09:09:27.936Z,994.78
2017-07-23T09:10:27.957Z,994.71
2017-07-23T09:11:27.984Z,994.71
2017-07-23T09:12:28.008Z,994.72
2017-07-23T09:13:28.043Z,994.73
2017-07-23T09:14:28.071Z,994.71
2017-07-23T09:15:28.105Z,994.74
2017-07-23T09:16:28.133Z,994.76
2017-07-23T09:17:28.162Z,994.68
2017-07-23T09:18:28.191Z,994.61
2017-07-23T09:19:28.225Z,994.64
2017-07-23T09:20:28.247Z,994.66
2017-07-23T09:21:28.282Z,994.66
2017-07-23T09:22:28.303Z,994.68
2017-07-23T09:23:28.338Z,994.69
2017-07-23T09:24:28.368Z,994.7
2017-07-23T09:25:28.648Z,994.77
2017-07-23T09:26:28.425Z,994.72
2017-07-23T09:27:28.453Z,994.74
2017-07-23T09:28:28.485Z,994.66
2017-07-23T09:29:28.515Z,994.72
2017-07-23T09:30:28.798Z,994.71
2017-07-23T09:31:28.572Z,994.67
2017-07-23T09:32:28.601Z,994.68
2017-07-23T09:33:28.635Z,994.62
2017-07-23T09:34:28.663Z,994.71
2017-07-23T09:35:28.944Z,994.61
2017-07-23T09:36:28.720Z,994.65
2017-07-23T09:37:28.745Z,994.64
2017-07-23T09:38:28.779Z,994.64
2017-07-23T09:39:28.813Z,994.66
2017-07-23T09:40:29.091Z,994.61
2017-07-23T09:41:28.868Z,994.63
2017-07-23T09:42:28.898Z,994.67
2017-07-23T09:43:28.926Z,994.66
2017-07-23T09:44:28.956Z,994.62
2017-07-23T09:45:29.287Z,994.75
2017-07-23T09:46:29.017Z,994.71
2017-07-23T09:47:29.046Z,994.73
2017-07-23T09:48:29.073Z,994.74
2017-07-23T09:49:29.108Z,994.76
2017-07-23T09:50:29.140Z,994.71
2017-07-23T09:51:29.164Z,994.72
2017-07-23T09:52:29.194Z,994.7
2017-07-23T09:53:29.223Z,994.75
2017-07-23T09:54:29.251Z,994.72
2017-07-23T09:55:29.285Z,994.68
2017-07-23T09:56:29.313Z,994.7
2017-07-23T09:57:29.343Z,994.7
2017-07-23T09:58:29.367Z,994.68
2017-07-23T09:59:29.400Z,994.64
2017-07-23T10:00:29.429Z,994.69
2017-07-23T10:01:29.458Z,994.77
2017-07-23T10:02:29.494Z,994.76
2017-07-23T10:03:29.521Z,994.73
2017-07-23T10:04:29.552Z,994.73
2017-07-23T10:05:29.577Z,994.68
2017-07-23T10:06:29.610Z,994.7
2017-07-23T10:07:29.632Z,994.59
2017-07-23T10:08:29.668Z,994.61
2017-07-23T10:09:29.696Z,994.6
2017-07-23T10:10:29.729Z,994.64
2017-07-23T10:11:29.755Z,994.66
2017-07-23T10:12:29.783Z,994.66
2017-07-23T10:13:29.816Z,994.69
2017-07-23T10:14:29.845Z,994.73
2017-07-23T10:15:29.869Z,994.58
2017-07-23T10:16:29.898Z,994.67
2017-07-23T10:17:29.935Z,994.63
2017-07-23T10:18:29.963Z,994.58
2017-07-23T10:19:29.992Z,994.63
2017-07-23T10:20:30.021Z,994.66
2017-07-23T10:21:30.049Z,994.63
2017-07-23T10:22:30.078Z,994.63
2017-07-23T10:23:30.117Z,994.6
2017-07-23T10:24:30.140Z,994.59
2017-07-23T10:25:30.169Z,994.56
2017-07-23T10:26:30.198Z,994.58
2017-07-23T10:27:30.227Z,994.58
2017-07-23T10:28:30.259Z,994.6
2017-07-23T10:29:30.289Z,994.55
2017-07-23T10:30:30.312Z,994.59
2017-07-23T10:31:30.349Z,994.6
2017-07-23T10:32:30.371Z,994.56
2017-07-23T10:33:30.403Z,994.63
2017-07-23T10:34:30.439Z,994.59
2017-07-23T10:35:30.466Z,994.66
2017-07-23T10:36:30.494Z,994.72
2017-07-23T10:37:30.524Z,994.7
2017-07-23T10:38:30.556Z,994.69
2017-07-23T10:39:30.586Z,994.65
2017-07-23T10:40:30.614Z,994.67
2017-07-23T10:41:30.642Z,994.66
2017-07-23T10:42:30.671Z,994.69
2017-07-23T10:43:30.704Z,994.69
2017-07-23T10:44:30.734Z,994.63
2017-07-23T10:45:30.761Z,994.72
2017-07-23T10:46:30.791Z,994.69
2017-07-23T10:47:30.820Z,994.73
2017-07-23T10:48:30.849Z,994.73
2017-07-23T10:49:30.877Z,994.71
2017-07-23T10:50:30.910Z,994.71
2017-07-23T10:51:30.940Z,994.67
2017-07-23T10:52:30.968Z,994.7
2017-07-23T10:53:31.001Z,994.72
2017-07-23T10:54:31.030Z,994.67
2017-07-23T10:55:31.058Z,994.7
2017-07-23T10:56:31.078Z,994.76
2017-07-23T10:57:31.113Z,994.71
2017-07-23T10:58:31.150Z,994.78
2017-07-23T10:59:31.177Z,994.75
2017-07-23T11:00:31.206Z,994.75
2017-07-23T11:01:31.239Z,994.72
2017-07-23T11:02:31.260Z,994.77
2017-07-23T11:03:31.293Z,994.77
2017-07-23T11:04:31.318Z,994.73
2017-07-23T11:05:31.354Z,994.71
2017-07-23T11:06:31.384Z,994.69
2017-07-23T11:07:31.409Z,994.68
2017-07-23T11:08:31.445Z,994.69
2017-07-23T11:09:31.474Z,994.68
2017-07-23T11:10:31.503Z,994.7
2017-07-23T11:11:31.531Z,994.68
2017-07-23T11:12:31.561Z,994.72
2017-07-23T11:13:31.593Z,994.72
2017-07-23T11:14:31.622Z,994.69
2017-07-23T11:15:31.654Z,994.69
2017-07-23T11:16:31.684Z,994.69
2017-07-23T11:17:31.713Z,994.69
2017-07-23T11:18:31.741Z,994.72
2017-07-23T11:19:31.770Z,994.7
2017-07-23T11:20:31.804Z,994.77
2017-07-23T11:21:31.831Z,994.77
2017-07-23T11:22:31.865Z,994.73
2017-07-23T11:23:31.893Z,994.69
2017-07-23T11:24:31.922Z,994.71
2017-07-23T11:25:31.952Z,994.8
2017-07-23T11:26:31.983Z,994.75
2017-07-23T11:27:32.014Z,994.76
2017-07-23T11:28:32.043Z,994.72
2017-07-23T11:29:32.066Z,994.68
2017-07-23T11:30:32.101Z,994.75
2017-07-23T11:31:32.374Z,994.76
2017-07-23T11:32:32.164Z,994.73
2017-07-23T11:33:32.195Z,994.68
2017-07-23T11:34:32.223Z,994.63
2017-07-23T11:35:32.249Z,994.81
2017-07-23T11:36:32.581Z,994.76
2017-07-23T11:37:32.308Z,994.64
2017-07-23T11:38:32.334Z,994.65
2017-07-23T11:39:32.371Z,994.63
2017-07-23T11:40:32.405Z,994.57
2017-07-23T11:41:32.680Z,994.61
2017-07-23T11:42:32.457Z,994.61
2017-07-23T11:43:32.492Z,994.57
2017-07-23T11:44:32.519Z,994.51
2017-07-23T11:45:32.624Z,994.6
2017-07-23T11:46:32.829Z,994.62
2017-07-23T11:47:32.610Z,994.57
2017-07-23T11:48:32.639Z,994.58
2017-07-23T11:49:32.666Z,994.6
2017-07-23T11:50:32.696Z,994.53
2017-07-23T11:51:32.981Z,994.6
2017-07-23T11:52:32.759Z,994.56
2017-07-23T11:53:32.787Z,994.62
2017-07-23T11:54:32.820Z,994.6
2017-07-23T11:55:32.848Z,994.61
2017-07-23T11:56:33.129Z,994.6
2017-07-23T11:57:32.906Z,994.71
2017-07-23T11:58:32.938Z,994.54
2017-07-23T11:59:32.967Z,994.51
2017-07-23T12:00:32.997Z,994.49
2017-07-23T12:01:33.285Z,994.54
2017-07-23T12:02:33.059Z,994.44
2017-07-23T12:03:33.088Z,994.44
2017-07-23T12:04:33.121Z,994.58
2017-07-23T12:05:33.146Z,994.6
2017-07-23T12:06:33.486Z,994.52
2017-07-23T12:07:33.205Z,994.45
2017-07-23T12:08:33.239Z,994.63
2017-07-23T12:09:33.271Z,994.67
2017-07-23T12:10:33.299Z,994.68
2017-07-23T12:11:33.585Z,994.51
2017-07-23T12:12:33.363Z,994.47
2017-07-23T12:13:33.395Z,994.53
2017-07-23T12:14:33.427Z,994.52
2017-07-23T12:15:33.457Z,994.69
2017-07-23T12:16:33.737Z,994.58
2017-07-23T12:17:33.517Z,994.53
2017-07-23T12:18:33.548Z,994.53
2017-07-23T12:19:33.577Z,994.63
2017-07-23T12:20:33.612Z,994.52
2017-07-23T12:21:33.897Z,994.66
2017-07-23T12:22:33.681Z,994.56
2017-07-23T12:23:33.709Z,994.51
2017-07-23T12:24:33.741Z,994.41
2017-07-23T12:25:33.769Z,994.49
2017-07-23T12:26:34.055Z,994.63
2017-07-23T12:27:33.832Z,994.62
2017-07-23T12:28:33.864Z,994.61
2017-07-23T12:29:33.896Z,994.48
2017-07-23T12:30:33.926Z,994.62
2017-07-23T12:31:34.210Z,994.57